createdAt,value
2023-03-29T00:00:14.240Z,6.30
2023-03-29T00:02:48.463Z,7.38
2023-03-29T00:05:25.364Z,6.00
2023-03-29T00:08:01.986Z,5.78
2023-03-29T00:10:36.163Z,5.65
2023-03-29T00:13:09.166Z,7.32
2023-03-29T00:15:43.092Z,5.88
2023-03-29T00:18:15.955Z,4.50
2023-03-29T00:20:56.574Z,5.78
2023-03-29T00:23:31.220Z,5.18
2023-03-29T00:26:06.548Z,6.13
2023-03-29T00:28:40.905Z,4.25
2023-03-29T00:31:17.049Z,3.72
2023-03-29T00:33:50.763Z,3.80
2023-03-29T00:36:23.717Z,4.18
2023-03-29T00:38:58.698Z,3.70
2023-03-29T00:41:31.555Z,3.28
2023-03-29T00:44:06.803Z,2.90
2023-03-29T00:46:39.958Z,2.67
2023-03-29T00:49:13.965Z,2.25
2023-03-29T00:51:48.166Z,2.33
2023-03-29T00:54:22.519Z,1.48
2023-03-29T00:56:55.647Z,1.65
2023-03-29T00:59:32.829Z,1.65
2023-03-29T01:02:08.409Z,1.60
2023-03-29T01:04:47.685Z,1.38
2023-03-29T01:07:24.664Z,1.35
2023-03-29T01:10:06.416Z,1.25
2023-03-29T01:12:45.709Z,1.33
2023-03-29T01:15:21.321Z,1.40
2023-03-29T01:17:58.132Z,1.42
2023-03-29T01:20:45.080Z,1.50
2023-03-29T01:23:35.379Z,1.63
2023-03-29T01:26:17.993Z,1.65
2023-03-29T01:28:58.698Z,1.58
2023-03-29T01:31:35.652Z,1.90
2023-03-29T01:34:14.008Z,1.67
2023-03-29T01:36:54.972Z,1.60
2023-03-29T01:39:28.378Z,1.48
2023-03-29T01:42:14.352Z,1.30
2023-03-29T01:44:57.770Z,1.50
2023-03-29T01:47:39.994Z,1.60
2023-03-29T01:50:17.208Z,1.73
2023-03-29T01:52:55.069Z,1.40
2023-03-29T01:55:33.466Z,1.52
2023-03-29T01:58:09.555Z,1.35
2023-03-29T02:00:45.541Z,1.58
2023-03-29T02:03:21.903Z,1.80
2023-03-29T02:05:56.242Z,1.83
2023-03-29T02:08:33.045Z,1.73
2023-03-29T02:11:06.236Z,1.70
2023-03-29T02:13:39.124Z,1.83
2023-03-29T02:16:15.018Z,1.58
2023-03-29T02:18:52.750Z,1.60
2023-03-29T02:21:31.564Z,1.50
2023-03-29T02:24:10.059Z,1.65
2023-03-29T02:26:44.905Z,1.83
2023-03-29T02:29:17.938Z,1.90
2023-03-29T02:31:56.649Z,2.13
2023-03-29T02:34:32.880Z,1.85
2023-03-29T02:37:10.352Z,2.08
2023-03-29T02:39:43.857Z,2.08
2023-03-29T02:42:19.661Z,2.22
2023-03-29T02:44:58.200Z,2.00
2023-03-29T02:47:38.016Z,1.70
2023-03-29T02:50:11.771Z,1.70
2023-03-29T02:52:53.373Z,2.03
2023-03-29T02:55:31.480Z,1.70
2023-03-29T02:58:08.302Z,1.58
2023-03-29T03:00:45.904Z,1.73
2023-03-29T03:03:21.156Z,1.73
2023-03-29T03:05:55.589Z,2.08
2023-03-29T03:08:28.901Z,1.80
2023-03-29T03:11:01.944Z,2.35
2023-03-29T03:13:34.884Z,2.10
2023-03-29T03:16:09.488Z,2.20
2023-03-29T03:18:46.069Z,2.22
2023-03-29T03:21:20.081Z,1.67
2023-03-29T03:23:53.479Z,2.00
2023-03-29T03:26:30.156Z,1.98
2023-03-29T03:29:03.238Z,1.88
2023-03-29T03:32:14.720Z,2.13
2023-03-29T03:35:01.206Z,2.35
2023-03-29T03:37:35.032Z,2.22
2023-03-29T03:40:11.484Z,2.30
2023-03-29T03:42:45.024Z,2.50
2023-03-29T03:45:18.038Z,2.03
2023-03-29T03:48:01.402Z,2.00
2023-03-29T03:51:03.614Z,2.13
2023-03-29T03:53:39.710Z,2.40
2023-03-29T03:56:18.438Z,2.13
2023-03-29T03:59:08.242Z,2.20
2023-03-29T04:02:00.091Z,1.90
2023-03-29T04:04:34.235Z,2.85
2023-03-29T04:07:14.376Z,2.50
2023-03-29T04:10:08.719Z,2.35
2023-03-29T04:13:05.143Z,2.35
2023-03-29T04:15:41.469Z,2.17
2023-03-29T04:18:18.434Z,2.45
2023-03-29T04:20:57.607Z,3.20
2023-03-29T04:23:34.063Z,2.35
2023-03-29T04:26:07.749Z,2.83
2023-03-29T04:29:01.444Z,2.10
2023-03-29T04:31:43.006Z,2.33
2023-03-29T04:34:29.071Z,1.98
2023-03-29T04:37:03.237Z,2.25
2023-03-29T04:39:37.547Z,2.08
2023-03-29T04:42:12.801Z,2.15
2023-03-29T04:44:46.364Z,2.25
2023-03-29T04:47:30.108Z,2.40
2023-03-29T04:50:09.592Z,2.65
2023-03-29T04:52:47.544Z,2.30
2023-03-29T04:55:22.183Z,2.10
2023-03-29T04:58:07.083Z,3.40
2023-03-29T05:00:41.152Z,2.45
2023-03-29T05:03:36.963Z,2.22
2023-03-29T05:06:21.767Z,2.10
2023-03-29T05:08:55.311Z,2.40
2023-03-29T05:11:34.636Z,2.40
2023-03-29T05:14:09.432Z,2.90
2023-03-29T05:16:42.840Z,2.50
2023-03-29T05:19:16.792Z,2.45
2023-03-29T05:21:53.256Z,2.67
2023-03-29T05:24:28.798Z,2.17
2023-03-29T05:27:05.298Z,2.30
2023-03-29T05:29:40.927Z,2.60
2023-03-29T05:32:32.161Z,4.03
2023-03-29T05:35:05.632Z,3.03
2023-03-29T05:37:40.391Z,2.42
2023-03-29T05:40:15.438Z,2.70
2023-03-29T05:43:09.547Z,2.70
2023-03-29T05:45:42.435Z,2.63
2023-03-29T05:48:15.916Z,2.33
2023-03-29T05:50:49.580Z,2.83
2023-03-29T05:53:25.557Z,2.58
2023-03-29T05:56:02.635Z,2.17
2023-03-29T05:58:38.234Z,2.60
2023-03-29T06:01:13.642Z,2.25
2023-03-29T06:04:08.400Z,1.95
2023-03-29T06:06:48.625Z,2.67
2023-03-29T06:09:21.568Z,2.60
2023-03-29T06:12:14.689Z,2.42
2023-03-29T06:15:04.170Z,2.42
2023-03-29T06:17:57.429Z,2.63
2023-03-29T06:20:30.784Z,2.42
2023-03-29T06:23:10.083Z,2.83
2023-03-29T06:25:44.905Z,2.88
2023-03-29T06:28:19.020Z,2.70
2023-03-29T06:30:56.340Z,2.70
2023-03-29T06:33:37.456Z,2.72
2023-03-29T06:36:20.221Z,2.80
2023-03-29T06:38:54.163Z,2.90
2023-03-29T06:41:50.512Z,2.83
2023-03-29T06:44:39.187Z,2.88
2023-03-29T06:47:19.436Z,2.70
2023-03-29T06:49:52.431Z,3.10
2023-03-29T06:52:40.511Z,2.85
2023-03-29T06:55:13.938Z,2.72
2023-03-29T06:57:50.000Z,2.72
2023-03-29T07:00:29.012Z,2.70
2023-03-29T07:03:25.459Z,2.42
2023-03-29T07:06:04.396Z,2.63
2023-03-29T07:08:43.711Z,3.10
2023-03-29T07:11:24.339Z,3.35
2023-03-29T07:14:00.814Z,2.47
2023-03-29T07:16:37.151Z,2.70
2023-03-29T07:19:34.774Z,2.35
2023-03-29T07:25:09.518Z,2.20
2023-03-29T07:27:42.765Z,2.10
2023-03-29T07:30:18.421Z,2.10
2023-03-29T07:32:53.637Z,2.47
2023-03-29T07:35:36.522Z,2.15
2023-03-29T07:38:09.451Z,2.13
2023-03-29T07:40:45.296Z,2.17
2023-03-29T07:43:37.204Z,2.25
2023-03-29T07:46:11.344Z,2.22
2023-03-29T07:48:45.222Z,2.13
2023-03-29T07:51:22.139Z,1.90
2023-03-29T07:53:58.773Z,2.17
2023-03-29T07:56:56.553Z,2.10
2023-03-29T07:59:46.856Z,1.80
2023-03-29T08:02:27.385Z,2.00
2023-03-29T08:05:03.739Z,2.03
2023-03-29T08:07:38.019Z,1.92
2023-03-29T08:10:34.336Z,2.20
2023-03-29T08:13:30.734Z,1.92
2023-03-29T08:16:22.278Z,2.22
2023-03-29T08:19:02.094Z,1.95
2023-03-29T08:21:49.907Z,2.33
2023-03-29T08:24:26.765Z,2.03
2023-03-29T08:27:04.281Z,2.92
2023-03-29T08:29:37.263Z,1.98
2023-03-29T08:32:10.047Z,2.10
2023-03-29T08:34:43.052Z,1.90
2023-03-29T08:37:32.628Z,1.88
2023-03-29T08:40:09.279Z,2.13
2023-03-29T08:43:35.804Z,1.90
2023-03-29T08:46:37.017Z,2.92
2023-03-29T08:49:29.225Z,2.38
2023-03-29T08:52:06.909Z,2.00
2023-03-29T08:54:47.843Z,2.03
2023-03-29T08:57:46.534Z,1.70
2023-03-29T09:00:33.594Z,2.17
2023-03-29T09:03:16.159Z,1.83
2023-03-29T09:05:51.599Z,1.85
2023-03-29T09:08:31.591Z,1.60
2023-03-29T09:11:29.273Z,1.85
2023-03-29T09:14:17.789Z,1.60
2023-03-29T09:16:59.600Z,1.90
2023-03-29T09:19:38.922Z,2.58
2023-03-29T09:22:20.760Z,2.22
2023-03-29T09:25:06.901Z,1.63
2023-03-29T09:27:49.495Z,2.00
2023-03-29T09:30:53.444Z,2.10
2023-03-29T09:33:28.132Z,1.88
2023-03-29T09:36:19.287Z,1.67
2023-03-29T09:38:55.664Z,1.98
2023-03-29T09:41:36.677Z,1.77
2023-03-29T09:44:27.710Z,2.13
2023-03-29T09:47:13.994Z,2.15
2023-03-29T09:49:50.334Z,1.75
2023-03-29T09:52:23.730Z,1.83
2023-03-29T09:55:16.055Z,2.08
2023-03-29T09:58:14.654Z,1.80
2023-03-29T10:00:51.752Z,1.70
2023-03-29T10:03:28.650Z,1.90
2023-03-29T10:06:15.610Z,2.25
2023-03-29T10:08:57.828Z,2.15
2023-03-29T10:11:39.715Z,2.45
2023-03-29T10:14:17.682Z,2.30
2023-03-29T10:16:57.401Z,1.70
2023-03-29T10:19:34.881Z,1.95
2023-03-29T10:22:16.343Z,2.10
2023-03-29T10:24:51.347Z,1.80
2023-03-29T10:27:27.388Z,2.15
2023-03-29T10:30:08.881Z,1.80
2023-03-29T10:32:42.652Z,1.80
2023-03-29T10:35:22.560Z,2.00
2023-03-29T10:37:58.302Z,1.88
2023-03-29T10:40:34.142Z,2.10
2023-03-29T10:43:15.206Z,2.13
2023-03-29T10:45:49.876Z,2.00
2023-03-29T10:48:28.844Z,1.75
2023-03-29T10:51:05.706Z,2.00
2023-03-29T10:53:39.083Z,1.80
2023-03-29T10:56:35.141Z,1.80
2023-03-29T10:59:28.541Z,1.70
2023-03-29T11:02:34.736Z,1.85
2023-03-29T11:05:22.588Z,1.60
2023-03-29T11:08:14.905Z,2.60
2023-03-29T11:10:55.943Z,2.03
2023-03-29T11:13:38.347Z,1.60
2023-03-29T11:16:20.700Z,1.80
2023-03-29T11:19:16.173Z,1.77
2023-03-29T11:21:57.007Z,1.60
2023-03-29T11:24:45.507Z,1.40
2023-03-29T11:27:29.219Z,1.95
2023-03-29T11:30:12.221Z,1.40
2023-03-29T11:32:54.467Z,1.20
2023-03-29T11:35:47.637Z,1.65
2023-03-29T11:38:32.784Z,1.35
2023-03-29T11:41:16.330Z,1.50
2023-03-29T11:43:55.252Z,1.30
2023-03-29T11:46:32.809Z,1.70
2023-03-29T11:49:11.168Z,1.30
2023-03-29T11:51:47.109Z,1.20
2023-03-29T11:54:25.965Z,1.45
2023-03-29T11:57:05.221Z,1.73
2023-03-29T11:59:42.872Z,1.48
2023-03-29T12:02:23.448Z,1.60
2023-03-29T12:04:59.653Z,1.70
2023-03-29T12:07:36.963Z,2.30
2023-03-29T12:10:17.847Z,1.42
2023-03-29T12:13:00.972Z,1.27
2023-03-29T12:15:39.909Z,1.50
2023-03-29T12:18:21.256Z,2.30
2023-03-29T12:20:58.425Z,1.58
2023-03-29T12:23:33.468Z,1.38
2023-03-29T12:26:17.014Z,1.95
2023-03-29T12:29:10.355Z,1.88
2023-03-29T12:31:52.578Z,1.63
2023-03-29T12:34:41.776Z,1.90
2023-03-29T12:37:42.349Z,1.80
2023-03-29T12:40:42.840Z,1.33
2023-03-29T12:43:39.008Z,2.00
2023-03-29T12:46:35.885Z,1.75
2023-03-29T12:49:14.975Z,1.73
2023-03-29T12:51:48.698Z,1.60
2023-03-29T12:54:26.225Z,1.48
2023-03-29T12:57:03.528Z,1.50
2023-03-29T12:59:40.028Z,2.47
2023-03-29T13:02:38.912Z,1.67
2023-03-29T13:05:31.250Z,2.40
2023-03-29T13:08:24.365Z,2.20
2023-03-29T13:10:58.085Z,1.50
2023-03-29T13:13:35.129Z,1.80
2023-03-29T13:16:15.014Z,1.90
2023-03-29T13:19:22.400Z,1.50
2023-03-29T13:22:30.004Z,2.05
2023-03-29T13:25:34.982Z,1.50
2023-03-29T13:28:31.323Z,1.92
2023-03-29T13:32:16.863Z,1.63
2023-03-29T13:35:36.940Z,1.77
2023-03-29T13:38:19.593Z,2.00
2023-03-29T13:41:05.464Z,1.52
2023-03-29T13:43:52.779Z,1.90
2023-03-29T13:46:38.011Z,2.05
2023-03-29T13:49:19.770Z,2.00
2023-03-29T13:52:08.934Z,1.60
2023-03-29T13:54:45.644Z,1.67
2023-03-29T13:57:21.191Z,1.85
2023-03-29T14:00:00.240Z,1.80
2023-03-29T14:02:39.064Z,1.88
2023-03-29T14:05:14.689Z,1.77
2023-03-29T14:07:52.061Z,2.00
2023-03-29T14:10:28.160Z,1.73
2023-03-29T14:13:03.918Z,1.70
2023-03-29T14:15:43.920Z,2.08
2023-03-29T14:18:20.226Z,1.83
2023-03-29T14:20:56.187Z,1.60
2023-03-29T14:23:32.755Z,2.08
2023-03-29T14:26:08.269Z,2.22
2023-03-29T14:28:46.417Z,2.50
2023-03-29T14:31:23.417Z,2.22
2023-03-29T14:33:58.505Z,2.13
2023-03-29T14:36:33.471Z,2.20
2023-03-29T14:39:14.292Z,2.47
2023-03-29T14:41:51.398Z,2.20
2023-03-29T14:44:28.612Z,2.63
2023-03-29T14:47:03.026Z,2.50
2023-03-29T14:49:36.133Z,2.17
2023-03-29T14:52:13.280Z,2.00
2023-03-29T14:54:52.603Z,2.53
2023-03-29T14:57:28.945Z,2.38
2023-03-29T15:00:13.319Z,2.22
2023-03-29T15:02:50.982Z,2.13
2023-03-29T15:05:36.959Z,2.20
2023-03-29T15:08:15.676Z,2.50
2023-03-29T15:10:50.873Z,2.47
2023-03-29T15:13:25.760Z,2.10
2023-03-29T15:16:02.330Z,1.95
2023-03-29T15:18:40.246Z,2.10
2023-03-29T15:21:17.711Z,2.28
2023-03-29T15:23:56.083Z,2.53
2023-03-29T15:26:33.124Z,2.40
2023-03-29T15:29:08.919Z,2.75
2023-03-29T15:31:43.077Z,2.40
2023-03-29T15:34:27.170Z,2.28
2023-03-29T15:37:00.880Z,2.25
2023-03-29T15:39:34.914Z,1.73
2023-03-29T15:42:10.400Z,1.83
2023-03-29T15:44:44.470Z,2.30
2023-03-29T15:47:17.230Z,1.73
2023-03-29T15:49:50.786Z,2.50
2023-03-29T15:52:23.817Z,2.22
2023-03-29T15:54:56.595Z,2.10
2023-03-29T15:57:31.040Z,1.83
2023-03-29T16:00:07.901Z,1.80
2023-03-29T16:02:45.394Z,2.10
2023-03-29T16:05:18.959Z,1.80
2023-03-29T16:07:51.931Z,2.42
2023-03-29T16:10:24.761Z,2.22
2023-03-29T16:12:59.388Z,2.10
2023-03-29T16:15:33.707Z,1.80
2023-03-29T16:18:06.823Z,2.13
2023-03-29T16:20:39.894Z,1.95
2023-03-29T16:23:12.847Z,2.03
2023-03-29T16:25:45.862Z,1.90
2023-03-29T16:28:20.134Z,2.00
2023-03-29T16:30:52.985Z,1.95
2023-03-29T16:33:25.775Z,2.08
2023-03-29T16:35:58.577Z,1.60
2023-03-29T16:38:31.523Z,1.90
2023-03-29T16:41:04.551Z,1.92
2023-03-29T16:43:38.829Z,1.98
2023-03-29T16:46:12.453Z,2.10
2023-03-29T16:48:45.429Z,2.70
2023-03-29T16:51:18.312Z,2.50
2023-03-29T16:53:51.660Z,2.85
2023-03-29T16:56:24.544Z,2.30
2023-03-29T16:58:58.956Z,2.60
2023-03-29T17:01:32.360Z,2.25
2023-03-29T17:04:05.963Z,2.35
2023-03-29T17:06:39.285Z,2.40
2023-03-29T17:09:12.763Z,2.60
2023-03-29T17:11:46.358Z,1.60
2023-03-29T17:16:53.518Z,2.30
2023-03-29T17:19:26.404Z,1.90
2023-03-29T17:21:59.106Z,2.00
2023-03-29T17:24:32.122Z,2.15
2023-03-29T17:27:06.330Z,2.33
2023-03-29T17:29:40.507Z,1.92
2023-03-29T17:32:13.277Z,2.03
2023-03-29T17:34:46.292Z,2.15
2023-03-29T17:37:20.245Z,1.73
2023-03-29T17:39:52.911Z,1.70
2023-03-29T17:42:25.711Z,2.20
2023-03-29T17:44:59.873Z,2.20
2023-03-29T17:47:32.675Z,1.88
2023-03-29T17:50:08.621Z,1.80
2023-03-29T17:52:41.791Z,1.95
2023-03-29T17:55:14.643Z,1.92
2023-03-29T17:57:48.999Z,1.75
2023-03-29T18:00:23.473Z,2.15
2023-03-29T18:02:56.474Z,1.90
2023-03-29T18:05:29.252Z,1.58
2023-03-29T18:08:02.299Z,1.80
2023-03-29T18:10:36.784Z,1.40
2023-03-29T18:13:13.802Z,1.80
2023-03-29T18:15:48.125Z,1.60
2023-03-29T18:18:21.064Z,2.33
2023-03-29T18:20:54.371Z,1.75
2023-03-29T18:23:27.416Z,1.65
2023-03-29T18:26:02.821Z,1.98
2023-03-29T18:28:37.579Z,1.90
2023-03-29T18:31:11.950Z,2.15
2023-03-29T18:33:44.715Z,1.40
2023-03-29T18:36:17.989Z,1.95
2023-03-29T18:38:53.569Z,2.22
2023-03-29T18:41:26.506Z,1.83
2023-03-29T18:44:00.290Z,1.70
2023-03-29T18:46:35.069Z,1.90
2023-03-29T18:49:08.611Z,1.58
2023-03-29T18:51:42.143Z,1.75
2023-03-29T18:54:15.344Z,2.42
2023-03-29T18:56:48.245Z,1.60
2023-03-29T18:59:21.399Z,1.85
2023-03-29T19:01:55.861Z,1.70
2023-03-29T19:04:28.843Z,2.20
2023-03-29T19:07:03.653Z,1.98
2023-03-29T19:09:36.989Z,2.00
2023-03-29T19:12:10.141Z,2.33
2023-03-29T19:14:42.968Z,2.67
2023-03-29T19:17:17.357Z,2.70
2023-03-29T19:19:50.147Z,3.30
2023-03-29T19:22:23.019Z,2.08
2023-03-29T19:24:56.004Z,2.83
2023-03-29T19:27:28.732Z,2.00
2023-03-29T19:30:02.302Z,2.92
2023-03-29T19:32:36.567Z,1.90
2023-03-29T19:35:10.316Z,2.78
2023-03-29T19:37:43.227Z,2.70
2023-03-29T19:40:16.165Z,3.22
2023-03-29T19:42:49.638Z,2.38
2023-03-29T19:45:23.394Z,2.20
2023-03-29T19:48:02.975Z,2.42
2023-03-29T19:50:40.605Z,1.92
2023-03-29T19:53:13.913Z,2.33
2023-03-29T19:55:46.746Z,1.90
2023-03-29T19:58:19.747Z,2.10
2023-03-29T20:00:53.170Z,2.72
2023-03-29T20:03:28.467Z,2.42
2023-03-29T20:06:01.539Z,2.30
2023-03-29T20:08:36.231Z,2.28
2023-03-29T20:11:10.238Z,2.05
2023-03-29T20:13:44.910Z,3.58
2023-03-29T20:16:19.339Z,2.30
2023-03-29T20:18:56.272Z,2.00
2023-03-29T20:21:29.898Z,1.77
2023-03-29T20:24:02.878Z,2.13
2023-03-29T20:26:35.956Z,2.13
2023-03-29T20:29:08.917Z,2.42
2023-03-29T20:31:41.816Z,2.63
2023-03-29T20:34:18.135Z,1.70
2023-03-29T20:36:55.225Z,1.90
2023-03-29T20:39:28.558Z,1.88
2023-03-29T20:42:01.566Z,2.70
2023-03-29T20:44:35.412Z,2.08
2023-03-29T20:47:08.616Z,2.05
2023-03-29T20:49:43.026Z,2.15
2023-03-29T20:52:18.135Z,2.05
2023-03-29T20:54:51.411Z,3.25
2023-03-29T20:57:24.511Z,2.15
2023-03-29T20:59:57.874Z,2.13
2023-03-29T21:02:31.319Z,2.00
2023-03-29T21:05:06.241Z,2.35
2023-03-29T21:07:39.213Z,2.20
2023-03-29T21:10:12.823Z,2.50
2023-03-29T21:12:45.558Z,2.45
2023-03-29T21:15:19.970Z,2.28
2023-03-29T21:17:53.160Z,2.70
2023-03-29T21:20:28.037Z,2.45
2023-03-29T21:23:01.028Z,2.50
2023-03-29T21:25:33.825Z,3.17
2023-03-29T21:28:06.933Z,4.40
2023-03-29T21:30:40.068Z,2.92
2023-03-29T21:33:12.949Z,2.30
2023-03-29T21:35:48.418Z,2.35
2023-03-29T21:38:21.532Z,2.22
2023-03-29T21:40:54.365Z,2.30
2023-03-29T21:43:27.161Z,2.80
2023-03-29T21:45:59.967Z,2.50
2023-03-29T21:48:32.905Z,2.15
2023-03-29T21:51:07.957Z,2.25
2023-03-29T21:53:41.005Z,2.10
2023-03-29T21:56:13.943Z,2.17
2023-03-29T21:58:46.640Z,2.10
2023-03-29T22:01:19.655Z,2.17
2023-03-29T22:03:52.334Z,2.25
2023-03-29T22:06:26.582Z,3.03
2023-03-29T22:09:00.725Z,2.50
2023-03-29T22:11:34.818Z,2.50
2023-03-29T22:14:08.469Z,2.25
2023-03-29T22:16:41.704Z,2.17
2023-03-29T22:19:14.499Z,1.90
2023-03-29T22:21:51.358Z,2.17
2023-03-29T22:24:24.289Z,2.20
2023-03-29T22:26:57.437Z,2.03
2023-03-29T22:29:30.223Z,2.20
2023-03-29T22:32:03.347Z,2.20
2023-03-29T22:34:36.403Z,2.40
2023-03-29T22:37:10.726Z,2.85
2023-03-29T22:39:43.575Z,2.50
2023-03-29T22:42:16.673Z,2.75
2023-03-29T22:44:49.691Z,2.33
2023-03-29T22:47:22.604Z,1.80
2023-03-29T22:49:55.550Z,1.83
2023-03-29T22:52:29.884Z,2.60
2023-03-29T22:55:02.870Z,2.33
2023-03-29T22:57:35.673Z,1.70
2023-03-29T23:00:10.454Z,1.75
2023-03-29T23:02:43.809Z,2.10
2023-03-29T23:05:16.715Z,2.20
2023-03-29T23:07:51.054Z,2.45
2023-03-29T23:10:28.801Z,2.17
2023-03-29T23:13:08.867Z,1.98
2023-03-29T23:15:45.484Z,1.80
2023-03-29T23:18:21.218Z,3.47
2023-03-29T23:20:55.752Z,2.28
2023-03-29T23:23:29.978Z,2.40
2023-03-29T23:26:04.204Z,2.15
2023-03-29T23:28:36.991Z,2.10
2023-03-29T23:31:11.908Z,2.42
2023-03-29T23:33:44.828Z,2.35
2023-03-29T23:36:19.769Z,2.08
2023-03-29T23:38:54.152Z,1.75
2023-03-29T23:41:28.245Z,2.17
2023-03-29T23:44:01.176Z,2.13
2023-03-29T23:46:34.001Z,2.03
2023-03-29T23:49:06.802Z,1.80
2023-03-29T23:51:39.627Z,1.83
2023-03-29T23:54:15.282Z,2.20
2023-03-29T23:56:48.112Z,1.73
2023-03-29T23:59:22.682Z,1.60
